Strona główna
METAR-TAF:

METAR-TAF

Lotnisko :

Kingston, Ontario, Kanada

Szerokość geograficzna: 44-13N, Długość geograficzna: 076-36W, wysokość: 93 m

Aktualna obserwacja pogody

Raport powstał 50 minut temu, godzina 23:00 UTC
Wiatr 7 kt od południowy zachód
Temperatura -7°C
Wilgotność 57%
Ciśnienie 1035 hPa
Widzialność: 24.1 km
Mało chmury na wysokości 3000 ft
Mało chmury na wysokości 25000 ft

METAR: CYGK 192300Z 23007KT 15SM FEW030 FEW250 M07/M14 A3057 RMK SC1CI2 SC TR SLP360

czas: 18:50 (23:50 UTC)

Prognoza

Raport powstał 4 godziny i 10 minut temu, godzina 19:40 UTC
Prognoza ważna od 19 godzina 20 UTC do 20 godzina 04 UTC
Wiatr 8 kt od południowy zachód
Widzialność: 10 km
Mało chmury na wysokości 3000 ft
Przejściowo
od 19 godzina 20 UTC do 19 godzina 24 UTC
Przerywane chmury na wysokości 3000 ft
Od 20 godzina 0000 UTC
Wiatr 6 kt od południowo-południowy zachód
Widzialność: 10 km
bezchmurnie

TAF: CYGK 191940Z 1920/2004 22008KT P6SM FEW030 TEMPO 1920/1924 BKN030 FM200000 21006KT P6SM SKC RMK NXT FCST BY 200200Z

Obserwacja i prognoza pogody dla ponad 4000 lotnisk (raport METAR i TAF).

Dostępne stacje oznaczono żółtymi i czerwonymi punktami na mapie.

Najedź kursorem aby zobaczyć nazwę stacji.

Kliknij aby zobaczyć obserwacje i prognozy pogody.

Aby zmienić mapę: kliknij na zielony przycisk z czarnym krzyżykiem, aby powiększyć; na zielony przycisk z myślnikiem, aby pomniejszyć; na zielone strzałki, aby przejść do map sąsiednich.


METAR-TAF: